Buffalo, WY (82834)

10:05 AM MDT on March 27, 2017 (GMT -0600)
Buffalo | | Change Station
Active Advisory: Special Statement

Elev 4708 ft 44.34 °N, 106.70 °W | Updated 7 seconds ago

Clear
Clear
49.3 °F
Feels Like 49 °F
N
1.1
Wind Variable Wind from NE
Gusts 2.5 mph

Today
High -- | Low -- °F
--% Chance of Precip.
Yesterday
High -- | Low -- °F
Precip. -- in
Pressure 29.80 in
Visibility 10.0 miles
Clouds Clear
Windchill 49 °F
Dew Point 35 °F
Humidity 58%
Rainfall 0.00 in
Snow Depth Not available.
6:56 AM 7:28 PM
Waning Crescent, 0% visible
METAR KBYG 271553Z AUTO 36006KT 10SM CLR 10/M01 A2984 RMK AO2 SLP090 T01001006
Pressure 29.80 in
Visibility 10.0 miles
Clouds Clear
Windchill 49 °F
Dew Point 35 °F
Humidity 58%
Rainfall 0.00 in
Snow Depth Not available.
6:56 AM 7:28 PM
Waning Crescent, 0% visible
METAR KBYG 271553Z AUTO 36006KT 10SM CLR 10/M01 A2984 RMK AO2 SLP090 T01001006

Get Your Daily Forecast Email!

Thanks for signing up!

Be on the lookout for a verification email in your inbox.

You'll start receiving severe weather alerts in your inbox..

×

10-Day Weather Forecast

Almanac

Astronomy

Mar. 27, 2017 Rise Set
Actual Time
Civil Twilight
Nautical Twilight
Astronomical Twilight
Moon
Length of Visible Light
Length of Day
Tomorrow will be .
, % of the Moon is Illuminated

Today's Extremes

State Highs State Lows

Community

WunderPhotos

Upload Photos

1,962,540 photos uploaded!

WunderBlog® & News

Nearby

Air Quality

  Air Quality AQ Index Pollutant
Not available.

Snow Depth

Station Depth Elevation

Earthquake Activity

City Distance Mag. Time & Date
Minimum magnitude displayed is 2.5.

Earthquake Activity

City Distance Mag. Time & Date
Minimum magnitude displayed is 2.5.

Coastal Water Temperatures

Place Temperature

Stations

Nearby Weather Stations

Station Location Temp. Windchill Dew Point Humidity Wind Precip. Elev Updated Type
                   

Watches & Warnings

Special Statement
Issued: 2:18 AM MDT Mar. 27, 2017 – National Weather Service

The next storm system will spread rain showers across the area
late this afternoon and evening. Cooler air will move behind a
cold front later tonight and may change the rain over to snow
late tonight and Tuesday morning. A coating to 2 inches of snow
will be possible over the lower elevations, mainly on non paved
surfaces. On Casper Mountain, 3 to 5 inches of snow is possible.
The precipitation should end Tuesday night.


218 am MDT Mon Mar 27 2017

The next storm system will spread rain showers across the area
late this afternoon and evening. Cooler air will move behind a
cold front later tonight and may change the rain over to snow
late tonight and Tuesday morning. A coating to 2 inches of snow
will be possible over the lower elevations, mainly on non paved
surfaces. On Casper Mountain, 3 to 5 inches of snow is possible.
The precipitation should end Tuesday night.